Time;durP1;ratioP1;P1;durP2;ratioP2;P2;SDS_P1;SDS_P2;PMS_P1;PMS_P2;Temp;Humidity;BMP_temperature;BMP_pressure;BME280_temperature;BME280_humidity;BME280_pressure;Samples;Min_cycle;Max_cycle;Signal;HPM_P1;HPM_P2
2022/04/24 00:01:56;;;;;;;22.35;10.27;;;;;;;11.59;50.45;98971.84;4917756;29;20059;-77
2022/04/24 00:04:24;;;;;;;20.85;11.00;;;;;;;11.62;50.42;98970.44;4916006;29;20063;-77
2022/04/24 00:06:51;;;;;;;25.10;10.60;;;;;;;11.69;50.70;98979.06;4916210;29;20404;-77
2022/04/24 00:09:19;;;;;;;22.10;10.57;;;;;;;11.70;50.25;98971.66;4913983;29;20063;-78
2022/04/24 00:11:47;;;;;;;21.55;10.55;;;;;;;11.41;50.27;98940.72;4915969;29;20076;-82
2022/04/24 00:14:14;;;;;;;23.60;11.23;;;;;;;11.60;50.47;98970.72;4929062;29;20063;-83
2022/04/24 00:16:41;;;;;;;22.15;11.68;;;;;;;11.66;50.47;98976.13;4937998;29;20134;-83
2022/04/24 00:19:08;;;;;;;26.63;11.68;;;;;;;11.65;50.40;98969.84;4916471;29;20071;-82
2022/04/24 00:21:34;;;;;;;20.63;10.73;;;;;;;11.51;50.49;98947.09;4903111;29;20063;-82
2022/04/24 00:24:01;;;;;;;30.27;12.00;;;;;;;11.58;50.61;98956.53;4919828;29;20083;-83
2022/04/24 00:26:28;;;;;;;24.33;12.30;;;;;;;11.57;50.95;98959.59;4912413;29;20507;-79
2022/04/24 00:28:55;;;;;;;30.88;11.73;;;;;;;11.57;51.14;98967.81;4948949;29;20379;-79
2022/04/24 00:31:21;;;;;;;27.13;12.23;;;;;;;11.52;50.97;98957.75;4922175;29;20063;-80
2022/04/24 00:33:48;;;;;;;23.83;11.57;;;;;;;11.62;51.05;98964.97;4925579;29;20123;-80
2022/04/24 00:36:14;;;;;;;24.90;12.57;;;;;;;11.41;51.25;98951.66;4923831;29;20079;-80
2022/04/24 00:38:40;;;;;;;25.23;12.05;;;;;;;11.47;51.53;98968.78;4913846;29;20432;-80
2022/04/24 00:41:06;;;;;;;26.85;11.98;;;;;;;11.49;51.76;98963.84;4915563;29;20059;-80
2022/04/24 00:43:34;;;;;;;23.50;12.30;;;;;;;11.51;51.55;98947.09;4926349;29;20521;-80
2022/04/24 00:46:40;;;;;;;23.55;11.45;;;;;;;11.50;51.77;98949.03;4906884;29;20064;-80
2022/04/24 00:49:07;;;;;;;29.00;11.50;;;;;;;11.45;51.99;98971.84;4933220;29;20056;-80
2022/04/24 00:51:34;;;;;;;28.35;11.75;;;;;;;11.44;51.99;98953.78;4920700;29;20087;-79
2022/04/24 00:54:00;;;;;;;22.08;11.48;;;;;;;11.42;52.05;98953.28;4910786;29;20094;-80
2022/04/24 00:56:31;;;;;;;20.42;10.85;;;;;;;11.40;52.12;98947.31;4908479;29;20060;-80
2022/04/24 00:58:58;;;;;;;23.27;10.75;;;;;;;11.43;51.96;98943.13;4919560;29;20087;-78
2022/04/24 01:01:25;;;;;;;26.17;11.05;;;;;;;11.31;52.28;98941.69;4932848;29;20052;-79
2022/04/24 01:03:54;;;;;;;33.20;11.27;;;;;;;11.20;52.17;98921.09;4922216;29;20516;-80
2022/04/24 01:06:20;;;;;;;22.02;11.25;;;;;;;11.34;52.40;98949.31;4923024;29;20063;-81
2022/04/24 01:08:47;;;;;;;25.98;11.07;;;;;;;11.32;52.46;98953.47;4911066;29;20056;-81
2022/04/24 01:11:13;;;;;;;26.05;11.48;;;;;;;11.16;52.51;98926.34;4932290;29;20514;-81
2022/04/24 01:13:39;;;;;;;27.55;12.00;;;;;;;11.24;52.37;98941.28;4913953;29;20063;-81
2022/04/24 01:16:06;;;;;;;22.48;11.32;;;;;;;11.27;52.53;98940.66;4903620;29;20150;-81
2022/04/24 01:18:33;;;;;;;22.45;10.80;;;;;;;11.10;52.47;98915.81;4924641;29;20059;-81
2022/04/24 01:21:07;;;;;;;26.73;11.73;;;;;;;11.25;52.68;98944.84;4952010;29;20051;-82
2022/04/24 01:23:34;;;;;;;19.58;11.15;;;;;;;11.29;52.42;98948.59;4932612;29;20157;-80
2022/04/24 01:26:00;;;;;;;24.90;11.75;;;;;;;11.33;52.18;98944.97;4911472;29;20437;-78
2022/04/24 01:28:26;;;;;;;24.42;10.90;;;;;;;11.29;52.17;98940.38;4911976;29;20429;-79
2022/04/24 01:30:52;;;;;;;29.15;10.98;;;;;;;11.33;52.21;98941.41;4932370;29;20150;-79
2022/04/24 01:33:18;;;;;;;21.08;11.00;;;;;;;11.30;52.40;98947.47;4938673;29;20067;-79
2022/04/24 01:35:45;;;;;;;26.42;12.55;;;;;;;11.25;52.45;98942.09;4908031;29;20051;-77
2022/04/24 01:38:12;;;;;;;21.35;10.55;;;;;;;11.28;52.56;98941.50;4931151;29;20154;-77
2022/04/24 01:40:38;;;;;;;21.88;10.98;;;;;;;11.23;52.60;98936.91;4932424;29;20516;-77
2022/04/24 01:43:05;;;;;;;26.75;11.32;;;;;;;11.24;52.63;98937.72;4943832;28;21165;-78
2022/04/24 01:45:31;;;;;;;24.03;11.57;;;;;;;11.21;52.79;98933.66;4933559;29;20154;-80
2022/04/24 01:47:58;;;;;;;23.00;12.23;;;;;;;11.05;52.71;98903.84;4937672;29;20318;-81
2022/04/24 01:50:25;;;;;;;27.63;12.15;;;;;;;11.26;52.43;98935.50;4932355;29;20324;-83
2022/04/24 01:52:51;;;;;;;27.02;11.45;;;;;;;10.91;52.61;98868.22;4916193;29;20090;-82
2022/04/24 01:55:18;;;;;;;22.38;10.88;;;;;;;11.33;52.36;98919.50;4926340;29;20507;-82
2022/04/24 01:57:44;;;;;;;18.50;10.50;;;;;;;11.32;52.46;98921.44;4898603;29;20115;-84
2022/04/24 02:00:12;;;;;;;23.02;11.55;;;;;;;11.15;52.49;98893.81;4928515;29;20062;-84
2022/04/24 02:02:44;;;;;;;20.73;10.95;;;;;;;11.19;52.42;98898.38;4881998;29;20100;-81
2022/04/24 02:05:10;;;;;;;24.60;12.07;;;;;;;11.17;52.41;98886.94;4919883;29;20056;-82
2022/04/24 02:07:36;;;;;;;19.90;10.80;;;;;;;11.16;52.49;98892.69;4926462;29;20098;-81
2022/04/24 02:10:04;;;;;;;28.83;12.18;;;;;;;11.26;52.76;98902.69;4933329;29;20150;-82
2022/04/24 02:12:31;;;;;;;29.00;11.70;;;;;;;11.05;52.85;98878.41;4911722;29;20056;-81
2022/04/24 02:14:58;;;;;;;22.27;11.90;;;;;;;11.06;52.83;98883.59;4929835;29;20096;-82
2022/04/24 02:17:24;;;;;;;23.02;11.25;;;;;;;11.03;53.05;98877.88;4929583;29;20064;-82
2022/04/24 02:19:50;;;;;;;23.73;11.43;;;;;;;11.25;53.23;98922.94;4928678;29;20056;-82
2022/04/24 02:22:16;;;;;;;23.55;11.45;;;;;;;11.18;53.26;98918.66;4931585;29;20060;-80
2022/04/24 02:24:42;;;;;;;26.85;12.27;;;;;;;10.99;53.66;98894.09;4932066;29;20091;-78
2022/04/24 02:27:09;;;;;;;22.48;11.30;;;;;;;11.20;53.48;98926.56;4935282;29;20497;-80
2022/04/24 02:29:36;;;;;;;24.00;10.90;;;;;;;11.10;53.61;98922.09;4901662;29;20048;-80
2022/04/24 02:32:03;;;;;;;26.27;11.35;;;;;;;10.97;53.60;98901.78;4907903;29;20076;-79
2022/04/24 02:34:33;;;;;;;24.37;11.20;;;;;;;11.05;53.71;98911.22;4901369;29;20064;-82
2022/04/24 02:36:59;;;;;;;24.52;12.30;;;;;;;11.07;53.98;98909.81;4929260;29;20314;-81
2022/04/24 02:39:25;;;;;;;21.27;10.90;;;;;;;10.95;53.83;98886.78;4918642;29;20876;-82
2022/04/24 02:41:51;;;;;;;29.48;11.50;;;;;;;11.14;53.80;98900.41;4928623;29;20059;-81
2022/04/24 02:44:18;;;;;;;22.40;10.80;;;;;;;11.17;53.41;98900.63;4896682;29;20147;-79
2022/04/24 02:46:44;;;;;;;21.83;11.77;;;;;;;11.20;53.49;98897.28;4930138;29;20148;-79
2022/04/24 02:49:11;;;;;;;23.37;11.50;;;;;;;11.23;53.36;98895.88;4898647;29;20230;-81
2022/04/24 02:51:37;;;;;;;22.15;11.80;;;;;;;11.18;53.48;98895.97;4918947;29;20320;-79
2022/04/24 02:54:03;;;;;;;19.27;10.55;;;;;;;11.17;53.42;98892.41;4945254;29;20060;-80
2022/04/24 02:56:30;;;;;;;26.63;12.05;;;;;;;11.11;53.37;98881.84;4921328;29;20059;-79
2022/04/24 02:58:56;;;;;;;23.20;11.38;;;;;;;11.22;53.29;98905.19;4933360;29;20047;-81
2022/04/24 03:01:22;;;;;;;24.27;12.15;;;;;;;11.22;53.49;98902.47;4925505;29;20064;-78
2022/04/24 03:03:52;;;;;;;22.48;11.15;;;;;;;11.09;53.66;98889.56;4924079;29;20070;-79
2022/04/24 03:06:19;;;;;;;23.02;10.93;;;;;;;11.18;53.57;98910.44;4906822;29;20064;-79
2022/04/24 03:08:46;;;;;;;25.45;11.35;;;;;;;11.22;53.43;98916.13;4931039;29;20075;-80
2022/04/24 03:11:13;;;;;;;27.67;11.60;;;;;;;11.25;53.53;98907.31;4915614;29;20056;-77
2022/04/24 03:13:39;;;;;;;23.17;11.73;;;;;;;11.25;53.43;98912.78;4917448;29;20071;-79
2022/04/24 03:16:05;;;;;;;27.40;11.45;;;;;;;11.25;53.75;98906.53;4931444;29;20052;-78
2022/04/24 03:18:31;;;;;;;28.85;12.05;;;;;;;11.28;53.41;98916.88;4931316;29;20102;-77
2022/04/24 03:20:58;;;;;;;25.05;11.35;;;;;;;11.16;53.59;98907.22;4931984;29;20102;-78
2022/04/24 03:23:27;;;;;;;27.40;12.02;;;;;;;11.23;53.45;98915.03;4917010;29;20517;-81
2022/04/24 03:25:53;;;;;;;24.08;12.07;;;;;;;11.22;53.76;98913.41;4903246;29;20540;-80
2022/04/24 03:28:19;;;;;;;24.83;11.57;;;;;;;11.22;53.60;98916.13;4934871;29;20595;-79
2022/04/24 03:30:46;;;;;;;22.13;10.88;;;;;;;11.28;53.53;98930.56;4919550;29;20060;-79
2022/04/24 03:33:12;;;;;;;23.93;11.10;;;;;;;11.19;53.51;98908.53;4919571;29;20150;-79
2022/04/24 03:35:39;;;;;;;22.08;10.63;;;;;;;11.29;53.50;98929.44;4917052;29;20064;-79
2022/04/24 03:38:07;;;;;;;26.48;11.30;;;;;;;11.29;53.41;98911.06;4930973;29;20048;-76
2022/04/24 03:40:33;;;;;;;;;;;;;;;11.32;53.55;98924.19;4894541;29;20546;-79
2022/04/24 03:42:59;;;;;;;25.98;10.77;;;;;;;11.29;53.78;98919.28;4903772;29;19937;-84
2022/04/24 03:45:26;;;;;;;21.38;11.07;;;;;;;11.24;53.19;98904.88;4914827;29;20060;-86
2022/04/24 03:47:52;;;;;;;20.38;10.85;;;;;;;11.32;53.37;98915.97;4927672;29;20064;-85
2022/04/24 03:50:21;;;;;;;23.85;10.85;;;;;;;11.31;53.50;98919.78;4920516;29;20146;-84
2022/04/24 03:52:48;;;;;;;21.30;10.52;;;;;;;11.36;53.46;98913.41;4915745;29;20087;-86
2022/04/24 03:56:12;;;;;;;;;;;;;;;;;;;;;
2022/04/24 03:59:07;;;;;;;27.33;10.90;;;;;;;11.43;53.17;98918.50;4879005;29;20067;-85
2022/04/24 04:01:35;;;;;;;27.73;11.70;;;;;;;11.38;53.33;98910.38;4916530;29;20504;-86
2022/04/24 04:04:02;;;;;;;20.48;10.20;;;;;;;11.16;53.61;98884.50;4905878;29;20504;-85
2022/04/24 04:06:28;;;;;;;20.20;10.18;;;;;;;11.38;53.42;98913.91;4925754;29;20083;-86
2022/04/24 04:08:55;;;;;;;19.77;9.98;;;;;;;11.38;53.58;98913.13;4933877;29;20092;-85
2022/04/24 04:11:21;;;;;;;24.13;10.75;;;;;;;11.29;53.62;98910.28;4921883;29;20086;-88
2022/04/24 04:13:48;;;;;;;17.83;9.18;;;;;;;11.21;53.79;98887.94;4916957;29;20150;-88
2022/04/24 04:16:15;;;;;;;23.88;9.80;;;;;;;11.11;53.68;98869.00;4930897;29;20060;-88
2022/04/24 04:18:42;;;;;;;19.58;9.48;;;;;;;10.84;53.72;98831.44;4938723;29;20126;-89
2022/04/24 04:21:11;;;;;;;23.38;9.48;;;;;;;11.00;53.64;98857.41;4926524;29;20198;-85
2022/04/24 04:23:43;;;;;;;20.20;9.65;;;;;;;11.12;53.84;98867.88;4931981;29;20063;-84
2022/04/24 04:26:19;;;;;;;19.50;9.63;;;;;;;11.30;53.63;98888.06;4939712;29;20060;-85
2022/04/24 04:28:46;;;;;;;21.08;9.45;;;;;;;11.45;53.44;98889.72;4939719;29;20038;-85
2022/04/24 04:31:13;;;;;;;26.02;10.68;;;;;;;11.45;53.43;98889.72;4909479;29;20059;-87
2022/04/24 04:33:41;;;;;;;24.30;10.77;;;;;;;11.29;53.30;98850.06;4933962;29;20060;-86
2022/04/24 04:36:08;;;;;;;;;;;;;;;11.55;53.32;98885.97;4948031;29;20052;-85
2022/04/24 04:38:36;;;;;;;26.85;11.63;;;;;;;11.54;53.13;98884.34;4933479;29;19931;-84
2022/04/24 04:41:12;;;;;;;;;;;;;;;11.53;53.28;98882.72;4928199;29;20064;-85
2022/04/24 04:43:41;;;;;;;20.63;10.10;;;;;;;11.40;53.35;98867.09;4899916;29;19935;-87
2022/04/24 04:46:07;;;;;;;21.75;9.93;;;;;;;11.52;53.39;98886.59;4915377;29;20060;-85
2022/04/24 04:48:34;;;;;;;18.67;9.88;;;;;;;11.11;53.62;98838.09;4911975;29;20067;-87
2022/04/24 04:51:00;;;;;;;22.48;9.80;;;;;;;11.43;53.99;98893.88;4928268;29;20055;-83
2022/04/24 04:53:26;;;;;;;22.43;9.87;;;;;;;11.33;54.28;98890.22;4929911;29;20068;-82
2022/04/24 04:55:55;;;;;;;18.90;9.80;;;;;;;11.19;54.47;98876.50;4914777;29;20056;-81
2022/04/24 04:58:22;;;;;;;23.10;10.05;;;;;;;11.30;54.53;98892.75;4883282;29;20060;-83
2022/04/24 05:00:48;;;;;;;21.10;9.30;;;;;;;11.34;54.48;98885.53;4916081;29;20540;-82
2022/04/24 05:03:15;;;;;;;18.35;9.15;;;;;;;11.37;54.34;98892.34;4937507;29;20072;-83
2022/04/24 05:05:42;;;;;;;20.35;9.75;;;;;;;11.25;54.49;98869.00;4936588;29;20071;-83
2022/04/24 05:08:09;;;;;;;19.00;9.07;;;;;;;11.39;54.53;98890.13;4954022;29;20059;-83
2022/04/24 05:10:35;;;;;;;21.38;9.45;;;;;;;11.39;54.56;98890.13;4924428;29;20050;-83
2022/04/24 05:13:02;;;;;;;19.73;9.20;;;;;;;11.40;54.41;98889.81;4925096;29;20051;-83
2022/04/24 05:15:28;;;;;;;26.95;9.30;;;;;;;11.42;54.45;98893.06;4934582;29;20116;-84
2022/04/24 05:17:54;;;;;;;22.25;9.07;;;;;;;11.42;54.53;98894.97;4904397;29;20064;-84
2022/04/24 05:20:21;;;;;;;16.83;8.80;;;;;;;11.46;54.20;98890.50;4922881;29;20062;-84
2022/04/24 05:22:47;;;;;;;19.95;9.25;;;;;;;11.51;53.94;98889.63;4921792;29;20095;-82
2022/04/24 05:25:14;;;;;;;32.65;9.00;;;;;;;11.58;53.77;98881.81;4920588;29;20159;-83
2022/04/24 05:27:41;;;;;;;24.60;9.48;;;;;;;11.57;53.73;98883.75;4933922;29;20063;-84
2022/04/24 05:30:08;;;;;;;22.17;10.13;;;;;;;11.63;53.56;98889.94;4931002;29;20052;-86
2022/04/24 05:32:39;;;;;;;19.50;9.57;;;;;;;11.60;53.37;98874.13;4940451;29;20100;-85
2022/04/24 05:35:07;;;;;;;17.95;9.02;;;;;;;11.72;53.23;98887.28;4908599;29;20130;-85
2022/04/24 05:37:34;;;;;;;23.30;9.95;;;;;;;11.66;53.46;98883.03;4916642;29;20516;-86
2022/04/24 05:40:00;;;;;;;22.98;9.93;;;;;;;11.57;53.41;98866.53;4914078;29;20071;-85
2022/04/24 05:42:27;;;;;;;17.55;9.48;;;;;;;11.68;53.45;98887.09;4923271;29;20052;-84
2022/04/24 05:44:53;;;;;;;21.93;8.57;;;;;;;11.58;53.59;98873.63;4920336;29;20499;-81
2022/04/24 05:47:27;;;;;;;19.42;9.00;;;;;;;11.70;53.59;98882.09;4938894;29;20113;-82
2022/04/24 05:50:10;;;;;;;22.92;9.70;;;;;;;11.71;53.70;98886.50;4936541;29;20079;-85
2022/04/24 05:52:55;;;;;;;16.48;9.23;;;;;;;11.31;53.56;98818.53;4930624;29;20055;-81
2022/04/24 05:55:22;;;;;;;22.25;9.40;;;;;;;11.47;53.47;98838.22;4950707;29;20484;-84
2022/04/24 05:57:49;;;;;;;21.08;10.25;;;;;;;11.50;53.31;98842.28;4918655;29;20062;-85
2022/04/24 06:00:17;;;;;;;17.33;8.60;;;;;;;11.56;53.56;98843.00;4921991;29;20060;-81
2022/04/24 06:02:43;;;;;;;19.95;8.43;;;;;;;11.68;53.36;98848.75;4918720;29;20060;-85
2022/04/24 06:05:13;;;;;;;17.35;8.65;;;;;;;11.76;53.25;98858.16;4948092;29;20060;-84
2022/04/24 06:07:40;;;;;;;21.85;8.93;;;;;;;11.46;53.39;98806.50;4899902;29;20067;-85
2022/04/24 06:10:11;;;;;;;23.13;9.10;;;;;;;11.74;53.27;98841.25;4925610;29;20512;-81
2022/04/24 06:12:45;;;;;;;19.13;9.65;;;;;;;11.88;53.39;98863.16;4946993;28;20063;-81
2022/04/24 06:15:27;;;;;;;16.83;9.57;;;;;;;11.56;53.33;98818.34;4913446;29;20159;-86
2022/04/24 06:17:55;;;;;;;18.27;9.40;;;;;;;11.82;53.33;98842.44;4929922;29;20060;-83
2022/04/24 06:20:27;;;;;;;27.95;10.23;;;;;;;11.69;53.43;98822.97;4899256;29;20127;-87
2022/04/24 06:22:58;;;;;;;18.20;9.25;;;;;;;11.81;53.23;98838.09;4916761;29;20424;-87
2022/04/24 06:25:38;;;;;;;17.02;8.38;;;;;;;11.88;53.34;98838.50;4916678;29;20059;-88
2022/04/24 06:28:13;;;;;;;16.58;8.73;;;;;;;11.90;53.16;98828.84;4948846;29;20067;-89
2022/04/24 06:31:10;;;;;;;19.88;9.48;;;;;;;12.08;53.03;98850.94;4907793;29;20428;-83
2022/04/24 06:33:37;;;;;;;18.02;9.57;;;;;;;11.80;52.94;98803.59;4932682;29;20146;-87
2022/04/24 06:36:05;;;;;;;26.15;9.75;;;;;;;11.72;53.25;98792.28;4917688;29;20051;-81
2022/04/24 06:38:32;;;;;;;18.70;7.72;;;;;;;12.05;53.18;98838.69;4912305;29;20056;-81
2022/04/24 06:40:58;;;;;;;16.35;8.52;;;;;;;12.09;53.20;98840.81;4940587;29;20075;-80
2022/04/24 06:43:24;;;;;;;21.80;8.90;;;;;;;12.22;53.00;98850.94;4908678;29;20358;-80
2022/04/24 06:45:52;;;;;;;17.63;8.63;;;;;;;12.18;53.18;98838.97;4917061;29;20052;-79
2022/04/24 06:48:19;;;;;;;15.65;8.90;;;;;;;12.25;53.05;98847.56;4928277;29;20358;-79
2022/04/24 06:50:47;;;;;;;18.38;8.73;;;;;;;12.03;53.16;98807.22;4934722;29;20060;-79
2022/04/24 06:53:14;;;;;;;;;;;;;;;12.29;53.08;98850.50;4918401;29;20059;-79
2022/04/24 06:55:52;;;;;;;17.83;8.88;;;;;;;12.16;53.19;98822.00;4934682;29;19926;-81
2022/04/24 06:59:05;;;;;;;16.88;8.73;;;;;;;11.87;53.31;98788.38;4952787;29;20058;-82
2022/04/24 07:01:31;;;;;;;21.65;9.45;;;;;;;12.07;53.21;98807.44;4938194;29;20053;-78
2022/04/24 07:03:58;;;;;;;18.27;9.52;;;;;;;12.34;53.14;98839.41;4937493;29;20052;-77
2022/04/24 07:06:25;;;;;;;23.23;10.82;;;;;;;12.37;53.00;98833.31;4934070;29;20066;-77
2022/04/24 07:08:51;;;;;;;20.35;9.35;;;;;;;12.37;53.08;98829.78;4935968;29;20043;-76
2022/04/24 07:11:22;;;;;;;17.80;8.70;;;;;;;12.50;52.87;98831.66;4941400;29;20079;-76
2022/04/24 07:14:30;;;;;;;21.67;10.50;;;;;;;12.54;52.64;98837.28;4937533;29;20182;-77
2022/04/24 07:16:56;;;;;;;26.92;11.25;;;;;;;12.18;52.69;98778.69;4931241;29;20126;-79
2022/04/24 07:19:23;;;;;;;22.38;10.60;;;;;;;12.50;52.71;98828.09;4937260;29;20058;-78
2022/04/24 07:21:58;;;;;;;28.13;10.30;;;;;;;12.31;52.74;98805.19;4930786;29;20090;-76
2022/04/24 07:24:28;;;;;;;22.00;9.65;;;;;;;12.43;52.82;98825.78;4926060;29;20060;-77
2022/04/24 07:26:54;;;;;;;22.02;9.07;;;;;;;12.55;52.77;98830.69;4945254;28;20060;-78
2022/04/24 07:29:21;;;;;;;20.85;9.40;;;;;;;12.63;52.54;98833.50;4937839;29;20055;-77
2022/04/24 07:31:46;;;;;;;20.58;8.93;;;;;;;12.70;52.16;98824.03;4942240;28;20138;-77
2022/04/24 07:34:13;;;;;;;20.40;8.80;;;;;;;12.67;52.20;98819.19;4932113;29;20079;-81
2022/04/24 07:36:44;;;;;;;22.27;8.95;;;;;;;12.77;52.10;98830.69;4944544;28;20051;-78
2022/04/24 07:39:14;;;;;;;22.90;8.68;;;;;;;12.70;51.71;98808.38;4937024;29;20040;-79
2022/04/24 07:41:40;;;;;;;20.13;8.52;;;;;;;12.72;51.69;98803.41;4950034;28;20110;-80
2022/04/24 07:44:07;;;;;;;16.80;8.00;;;;;;;12.56;51.89;98777.47;4930207;29;20063;-79
2022/04/24 07:46:58;;;;;;;26.50;8.48;;;;;;;12.73;51.80;98795.97;4931824;29;20076;-79
2022/04/24 07:49:29;;;;;;;23.23;9.00;;;;;;;12.66;51.69;98779.97;4935841;29;20158;-78
2022/04/24 07:51:59;;;;;;;22.65;9.20;;;;;;;12.56;51.71;98766.50;4951921;29;20043;-78
2022/04/24 07:54:26;;;;;;;28.38;9.48;;;;;;;12.84;51.52;98789.09;4959147;29;20043;-80
2022/04/24 07:56:52;;;;;;;23.77;9.57;;;;;;;12.91;51.27;98789.44;4959784;29;20094;-79
2022/04/24 07:59:18;;;;;;;24.80;9.25;;;;;;;12.82;51.56;98780.38;4956217;29;20055;-79
2022/04/24 08:02:04;;;;;;;21.10;8.77;;;;;;;12.91;51.50;98780.44;4941568;28;20439;-84
2022/04/24 08:04:31;;;;;;;25.23;10.07;;;;;;;13.18;51.54;98800.53;4930125;29;20145;-80
2022/04/24 08:07:29;;;;;;;22.15;9.63;;;;;;;12.85;51.31;98749.56;4898596;29;20071;-79
2022/04/24 08:10:00;;;;;;;21.15;10.13;;;;;;;13.23;51.52;98791.38;4939499;28;20062;-79
2022/04/24 08:12:32;;;;;;;27.38;10.80;;;;;;;13.18;51.45;98770.34;4916502;29;20078;-77
2022/04/24 08:15:15;;;;;;;29.05;9.75;;;;;;;13.07;51.05;98728.66;4921761;29;20052;-79
2022/04/24 08:18:35;;;;;;;;;;;;;;;;;;;;;
2022/04/24 08:21:39;;;;;;;22.27;9.27;;;;;;;13.30;50.49;98739.56;4826203;29;20139;-81
2022/04/24 08:24:25;;;;;;;22.10;7.32;;;;;;;13.31;50.15;98741.97;4940167;29;20480;-80
2022/04/24 08:26:59;;;;;;;22.50;7.32;;;;;;;13.31;49.74;98736.50;4901308;29;20519;-79
2022/04/24 08:30:08;;;;;;;20.40;7.20;;;;;;;13.58;49.47;98766.78;4906115;29;20107;-85
2022/04/24 08:33:38;;;;;;;;;;;;;;;;;;;;;
2022/04/24 08:37:05;;;;;;;17.45;5.85;;;;;;;13.42;48.35;98716.97;4888508;29;20087;-85
2022/04/24 08:39:51;;;;;;;20.90;6.82;;;;;;;13.65;48.65;98747.09;4948285;29;20063;-82
2022/04/24 08:42:24;;;;;;;21.98;6.40;;;;;;;13.96;47.98;98787.34;4947526;29;20094;-85
2022/04/24 08:45:15;;;;;;;16.50;6.03;;;;;;;13.80;47.92;98743.06;4933634;29;20507;-83
2022/04/24 08:48:02;;;;;;;15.95;6.22;;;;;;;13.79;47.53;98742.25;4950010;28;20138;-81
2022/04/24 08:50:55;;;;;;;23.20;7.35;;;;;;;13.99;47.61;98768.28;4946533;28;20051;-83
2022/04/24 08:53:35;;;;;;;21.38;7.25;;;;;;;14.04;47.66;98756.34;4908159;29;20062;-83
2022/04/24 08:56:27;;;;;;;17.25;6.85;;;;;;;13.98;47.75;98741.16;4936323;29;20512;-83
2022/04/24 08:59:17;;;;;;;19.33;6.13;;;;;;;14.25;47.33;98763.91;4934279;29;20515;-81
2022/04/24 09:01:59;;;;;;;18.63;7.03;;;;;;;14.06;47.45;98718.34;4941400;28;20118;-81
2022/04/24 09:04:27;;;;;;;13.23;5.43;;;;;;;14.41;46.79;98770.53;4940582;29;20119;-82
2022/04/24 09:06:59;;;;;;;18.20;5.70;;;;;;;14.21;46.36;98713.47;4935690;29;20672;-84
2022/04/24 09:17:01;;;;;;;;;;;;;;;;;;;;;
2022/04/24 09:19:30;;;;;;;13.63;4.78;;;;;;;14.80;44.26;98758.84;4931806;29;20056;-82
2022/04/24 09:22:04;;;;;;;12.85;4.18;;;;;;;14.86;44.07;98757.50;4928192;29;20055;-81
2022/04/24 09:24:41;;;;;;;17.33;4.70;;;;;;;14.85;43.93;98756.72;4915362;29;20159;-83
2022/04/24 09:27:12;;;;;;;18.60;4.63;;;;;;;14.56;43.71;98700.47;4932899;29;20085;-86
2022/04/24 09:29:40;;;;;;;14.00;4.60;;;;;;;14.77;43.75;98735.53;4905676;29;20052;-83
2022/04/24 09:32:12;;;;;;;12.70;4.03;;;;;;;14.77;43.25;98741.03;4928140;29;20059;-80
2022/04/24 09:34:39;;;;;;;11.52;3.97;;;;;;;14.77;43.53;98751.25;4912406;29;20143;-80
2022/04/24 09:37:08;;;;;;;11.02;4.18;;;;;;;14.64;43.10;98747.50;4898920;29;20063;-81
2022/04/24 09:39:35;;;;;;;13.73;4.28;;;;;;;14.63;43.20;98748.66;4903162;29;20071;-80
2022/04/24 09:42:03;;;;;;;10.77;4.13;;;;;;;14.58;43.39;98741.38;4912001;29;20060;-83
2022/04/24 09:44:37;;;;;;;9.63;4.00;;;;;;;14.65;43.15;98754.63;4932991;29;20091;-83
2022/04/24 09:47:11;;;;;;;9.20;4.15;;;;;;;14.58;43.39;98736.69;4930751;29;20055;-84
2022/04/24 09:49:39;;;;;;;10.73;4.30;;;;;;;14.63;42.89;98737.66;4928660;29;20064;-81
2022/04/24 09:52:10;;;;;;;15.70;4.35;;;;;;;14.57;43.24;98743.31;4933340;29;20102;-81
2022/04/24 09:54:38;;;;;;;15.30;4.10;;;;;;;14.57;43.43;98737.84;4916207;29;20067;-82
2022/04/24 09:57:07;;;;;;;16.92;4.07;;;;;;;14.55;43.10;98736.53;4913767;29;20461;-83
2022/04/24 09:59:36;;;;;;;14.27;4.00;;;;;;;14.54;42.95;98738.50;4920414;29;20056;-83
2022/04/24 10:02:03;;;;;;;13.15;4.85;;;;;;;14.54;43.29;98749.50;4898065;29;20186;-82
2022/04/24 10:04:34;;;;;;;15.05;5.90;;;;;;;14.60;43.33;98750.13;4916291;29;20059;-84
2022/04/24 10:07:01;;;;;;;17.98;5.57;;;;;;;14.39;42.67;98722.50;4928547;29;20064;-82
2022/04/24 10:09:42;;;;;;;19.33;5.38;;;;;;;14.43;42.11;98731.72;4901422;29;20052;-83
2022/04/24 10:12:30;;;;;;;10.27;4.00;;;;;;;14.42;41.90;98695.16;4919571;29;20063;-81
2022/04/24 10:15:02;;;;;;;10.85;3.70;;;;;;;14.26;41.39;98702.28;4915535;29;20170;-82
2022/04/24 10:18:30;;;;;;;9.70;3.58;;;;;;;14.51;41.25;98705.31;4933046;29;20091;-83
2022/04/24 10:21:10;;;;;;;;;;;;;;;14.65;41.44;98746.38;4869858;29;20056;-80
2022/04/24 10:23:38;;;;;;;16.58;3.17;;;;;;;14.52;41.70;98713.25;4874287;29;20103;-83
2022/04/24 10:26:16;;;;;;;12.75;3.85;;;;;;;14.59;42.04;98745.75;4920301;29;20087;-82
2022/04/24 10:28:46;;;;;;;10.48;4.40;;;;;;;14.54;42.04;98748.66;4917952;29;20334;-79
2022/04/24 10:31:15;;;;;;;15.30;5.05;;;;;;;14.54;42.10;98754.16;4916585;29;20084;-82
2022/04/24 10:33:51;;;;;;;15.25;6.20;;;;;;;14.41;42.25;98742.25;4918793;29;20139;-82
2022/04/24 10:36:20;;;;;;;14.20;5.43;;;;;;;14.48;42.52;98750.00;4934040;29;20059;-80
2022/04/24 10:39:19;;;;;;;16.35;4.00;;;;;;;14.40;43.41;98757.13;4935546;29;20063;-80
2022/04/24 10:41:54;;;;;;;11.07;4.28;;;;;;;14.33;44.07;98757.63;4903898;29;20063;-79
2022/04/24 10:44:22;;;;;;;17.50;4.78;;;;;;;14.27;44.92;98775.38;4930450;29;20431;-81
2022/04/24 10:46:49;;;;;;;10.93;4.60;;;;;;;14.16;45.76;98788.66;4895398;29;20460;-82
2022/04/24 10:49:19;;;;;;;11.60;5.43;;;;;;;14.00;46.79;98772.66;4917009;29;20081;-82
2022/04/24 10:52:00;;;;;;;9.73;4.07;;;;;;;13.68;47.40;98724.50;4902319;29;20146;-82
2022/04/24 10:54:40;;;;;;;10.95;3.97;;;;;;;14.03;47.75;98771.22;4935222;29;20055;-79
2022/04/24 10:57:18;;;;;;;8.98;3.90;;;;;;;14.04;48.13;98761.84;4934896;29;20477;-82
2022/04/24 10:59:49;;;;;;;9.32;4.00;;;;;;;14.10;47.67;98762.47;4933582;29;20063;-81
2022/04/24 11:02:43;;;;;;;12.05;4.40;;;;;;;14.15;47.76;98774.13;4939677;29;20436;-78
2022/04/24 11:05:44;;;;;;;11.63;4.28;;;;;;;14.17;47.77;98760.03;4900739;29;20055;-80
2022/04/24 11:08:20;;;;;;;;;;;;;;;14.21;47.84;98760.22;4881618;29;20086;-79
2022/04/24 11:11:13;;;;;;;10.60;3.58;;;;;;;13.83;47.69;98693.78;4900882;29;20406;-81
2022/04/24 11:14:07;;;;;;;12.73;4.25;;;;;;;14.00;47.53;98723.19;4931743;29;20055;-80
2022/04/24 11:16:39;;;;;;;13.07;4.35;;;;;;;14.01;47.50;98733.03;4928200;29;20086;-79
2022/04/24 11:19:06;;;;;;;11.60;4.38;;;;;;;14.22;47.59;98757.16;4916683;29;20063;-81
2022/04/24 11:21:45;;;;;;;14.93;5.57;;;;;;;14.11;47.72;98753.09;4915938;29;20070;-81
2022/04/24 11:24:38;;;;;;;14.25;4.47;;;;;;;13.87;48.07;98817.56;4934570;29;20059;-79
2022/04/24 11:27:43;;;;;;;10.43;6.13;;;;;;;13.48;53.33;98814.56;4903602;29;20104;-79
2022/04/24 11:30:26;;;;;;;15.13;6.70;;;;;;;13.14;56.35;98802.31;4954185;29;20078;-79
2022/04/24 11:33:17;;;;;;;12.27;6.40;;;;;;;12.89;58.95;98815.59;4953219;28;20065;-79
2022/04/24 11:35:49;;;;;;;12.70;7.07;;;;;;;12.63;59.93;98808.00;4953913;29;20154;-79
2022/04/24 11:38:49;;;;;;;15.88;7.63;;;;;;;12.50;60.96;98797.94;4941252;28;20518;-78
2022/04/24 11:41:24;;;;;;;17.50;9.50;;;;;;;12.15;61.17;98757.38;4953869;29;20055;-78
2022/04/24 11:50:54;;;;;;;13.75;8.10;;;;;;;12.38;61.54;98818.47;4858118;29;20065;-79
2022/04/24 11:53:26;;;;;;;13.77;7.70;;;;;;;12.43;61.56;98823.03;4891019;29;20102;-78
2022/04/24 11:56:03;;;;;;;14.95;7.80;;;;;;;12.43;61.72;98831.25;4940066;29;20059;-79
2022/04/24 11:58:51;;;;;;;14.82;7.65;;;;;;;12.40;61.95;98835.41;4952152;29;20055;-80
2022/04/24 12:01:26;;;;;;;15.75;7.55;;;;;;;12.45;61.93;98831.75;4936885;29;20118;-80
2022/04/24 12:03:55;;;;;;;12.45;6.93;;;;;;;12.24;61.88;98810.31;4955784;28;20508;-78
2022/04/24 12:06:33;;;;;;;12.15;6.97;;;;;;;12.27;61.96;98819.88;4934914;29;20528;-80
2022/04/24 12:13:28;;;;;;;12.70;7.13;;;;;;;12.12;62.77;98819.09;4869863;29;20499;-80